createdAt,value
2023-05-02T00:00:12.126Z,21.8
2023-05-02T00:01:13.729Z,21.8
2023-05-02T00:02:15.643Z,21.8
2023-05-02T00:03:18.085Z,21.8
2023-05-02T00:04:20.894Z,21.8
2023-05-02T00:05:23.091Z,21.8
2023-05-02T00:06:25.194Z,21.8
2023-05-02T00:07:27.354Z,21.7
2023-05-02T00:08:29.187Z,21.7
2023-05-02T00:09:30.785Z,21.7
2023-05-02T00:10:32.760Z,21.7
2023-05-02T00:11:34.437Z,21.7
2023-05-02T00:12:36.191Z,21.7
2023-05-02T00:13:38.026Z,21.7
2023-05-02T00:14:39.692Z,21.7
2023-05-02T00:15:41.586Z,21.7
2023-05-02T00:16:43.287Z,21.7
2023-05-02T00:17:45.366Z,21.7
2023-05-02T00:18:47.372Z,21.7
2023-05-02T00:19:49.145Z,21.7
2023-05-02T00:20:51.045Z,21.7
2023-05-02T00:21:52.827Z,21.7
2023-05-02T00:22:54.784Z,21.7
2023-05-02T00:23:56.633Z,21.7
2023-05-02T00:24:58.474Z,21.7
2023-05-02T00:26:00.313Z,21.6
2023-05-02T00:27:01.929Z,21.6
2023-05-02T00:28:03.830Z,21.6
2023-05-02T00:29:05.673Z,21.6
2023-05-02T00:30:07.535Z,21.6
2023-05-02T00:31:09.206Z,21.6
2023-05-02T00:32:11.245Z,21.6
2023-05-02T00:33:13.374Z,21.6
2023-05-02T00:34:15.606Z,21.6
2023-05-02T00:35:17.579Z,21.6
2023-05-02T00:36:19.490Z,21.6
2023-05-02T00:37:21.413Z,21.6
2023-05-02T00:38:23.198Z,21.6
2023-05-02T00:39:25.094Z,21.6
2023-05-02T00:40:26.905Z,21.6
2023-05-02T00:41:28.820Z,21.6
2023-05-02T00:42:30.472Z,21.6
2023-05-02T00:43:32.189Z,21.6
2023-05-02T00:44:34.039Z,21.6
2023-05-02T00:45:35.622Z,21.6
2023-05-02T00:46:37.312Z,21.6
2023-05-02T00:47:39.377Z,21.6
2023-05-02T00:48:41.297Z,21.6
2023-05-02T00:49:43.192Z,21.6
2023-05-02T00:50:44.822Z,21.6
2023-05-02T00:51:46.626Z,21.6
2023-05-02T00:52:48.224Z,21.6
2023-05-02T00:53:50.111Z,21.6
2023-05-02T00:54:51.856Z,21.6
2023-05-02T00:55:53.516Z,21.6
2023-05-02T00:56:55.112Z,21.6
2023-05-02T00:57:56.782Z,21.6
2023-05-02T00:58:58.769Z,21.6
2023-05-02T01:00:00.834Z,21.5
2023-05-02T01:01:03.772Z,21.6
2023-05-02T01:02:05.800Z,21.5
2023-05-02T01:03:08.060Z,21.5
2023-05-02T01:04:10.303Z,21.6
2023-05-02T01:05:12.751Z,21.5
2023-05-02T01:06:14.647Z,21.6
2023-05-02T01:07:16.511Z,21.6
2023-05-02T01:08:18.434Z,21.5
2023-05-02T01:09:20.346Z,21.5
2023-05-02T01:10:22.280Z,21.5
2023-05-02T01:11:24.194Z,21.5
2023-05-02T01:12:26.073Z,21.5
2023-05-02T01:13:27.929Z,21.5
2023-05-02T01:14:29.892Z,21.5
2023-05-02T01:15:31.849Z,21.5
2023-05-02T01:16:33.737Z,21.5
2023-05-02T01:17:36.010Z,21.5
2023-05-02T01:18:37.698Z,21.5
2023-05-02T01:19:39.275Z,21.5
2023-05-02T01:20:41.120Z,21.5
2023-05-02T01:21:43.090Z,21.5
2023-05-02T01:22:44.945Z,21.5
2023-05-02T01:23:46.795Z,21.5
2023-05-02T01:24:48.712Z,21.5
2023-05-02T01:25:50.505Z,21.5
2023-05-02T01:26:54.939Z,21.5
2023-05-02T01:27:56.785Z,21.5
2023-05-02T01:28:58.604Z,21.5
2023-05-02T01:30:00.659Z,21.5
2023-05-02T01:31:03.843Z,21.5
2023-05-02T01:32:05.929Z,21.5
2023-05-02T01:33:08.195Z,21.5
2023-05-02T01:34:10.216Z,21.5
2023-05-02T01:35:12.015Z,21.5
2023-05-02T01:36:13.919Z,21.5
2023-05-02T01:37:15.754Z,21.4
2023-05-02T01:38:20.186Z,21.4
2023-05-02T01:39:21.866Z,21.4
2023-05-02T01:40:23.731Z,21.4
2023-05-02T01:41:25.606Z,21.4
2023-05-02T01:42:27.187Z,21.4
2023-05-02T01:43:29.170Z,21.4
2023-05-02T01:44:30.827Z,21.4
2023-05-02T01:45:32.411Z,21.4
2023-05-02T01:46:34.296Z,21.4
2023-05-02T01:47:36.420Z,21.4
2023-05-02T01:48:38.541Z,21.4
2023-05-02T01:49:40.482Z,21.4
2023-05-02T01:50:42.440Z,21.4
2023-05-02T01:51:44.117Z,21.4
2023-05-02T01:52:45.754Z,21.4
2023-05-02T01:53:47.405Z,21.4
2023-05-02T01:54:48.990Z,21.4
2023-05-02T01:55:50.874Z,21.4
2023-05-02T01:56:52.762Z,21.4
2023-05-02T01:57:54.602Z,21.4
2023-05-02T01:58:56.378Z,21.4
2023-05-02T01:59:58.517Z,21.4
2023-05-02T02:01:01.855Z,21.4
2023-05-02T02:02:04.052Z,21.4
2023-05-02T02:03:05.912Z,21.4
2023-05-02T02:04:07.974Z,21.4
2023-05-02T02:05:10.032Z,21.4
2023-05-02T02:06:11.881Z,21.4
2023-05-02T02:07:14.182Z,21.4
2023-05-02T02:08:15.817Z,21.4
2023-05-02T02:09:17.409Z,21.4
2023-05-02T02:10:19.262Z,21.4
2023-05-02T02:11:20.851Z,21.4
2023-05-02T02:12:22.516Z,21.4
2023-05-02T02:13:24.133Z,21.4
2023-05-02T02:14:26.065Z,21.4
2023-05-02T02:15:27.834Z,21.4
2023-05-02T02:16:29.898Z,21.4
2023-05-02T02:17:31.914Z,21.4
2023-05-02T02:18:33.957Z,21.4
2023-05-02T02:19:35.877Z,21.4
2023-05-02T02:20:37.477Z,21.4
2023-05-02T02:21:39.084Z,21.4
2023-05-02T02:22:40.949Z,21.4
2023-05-02T02:23:42.632Z,21.4
2023-05-02T02:24:44.443Z,21.4
2023-05-02T02:25:46.281Z,21.4
2023-05-02T02:26:48.236Z,21.4
2023-05-02T02:27:49.945Z,21.4
2023-05-02T02:28:51.559Z,21.4
2023-05-02T02:29:53.415Z,21.4
2023-05-02T02:30:55.262Z,21.4
2023-05-02T02:31:57.345Z,21.4
2023-05-02T02:32:59.166Z,21.4
2023-05-02T02:34:01.300Z,21.4
2023-05-02T02:35:03.160Z,21.4
2023-05-02T02:36:04.931Z,21.4
2023-05-02T02:37:06.736Z,21.4
2023-05-02T02:38:08.657Z,21.4
2023-05-02T02:39:10.270Z,21.4
2023-05-02T02:40:11.845Z,21.4
2023-05-02T02:41:13.594Z,21.4
2023-05-02T02:42:15.493Z,21.4
2023-05-02T02:43:17.337Z,21.4
2023-05-02T02:44:19.092Z,21.4
2023-05-02T02:45:20.852Z,21.4
2023-05-02T02:46:22.552Z,21.3
2023-05-02T02:47:24.395Z,21.3
2023-05-02T02:48:26.325Z,21.3
2023-05-02T02:49:28.223Z,21.3
2023-05-02T02:50:29.975Z,21.3
2023-05-02T02:51:31.881Z,21.3
2023-05-02T02:52:33.678Z,21.3
2023-05-02T02:53:35.528Z,21.3
2023-05-02T02:54:37.587Z,21.3
2023-05-02T02:55:39.227Z,21.3
2023-05-02T02:56:40.898Z,21.3
2023-05-02T02:57:42.463Z,21.3
2023-05-02T02:58:44.113Z,21.3
2023-05-02T02:59:45.753Z,21.3
2023-05-02T03:00:47.580Z,21.3
2023-05-02T03:01:49.275Z,21.3
2023-05-02T03:02:51.393Z,21.3
2023-05-02T03:03:53.492Z,21.3
2023-05-02T03:04:55.572Z,21.3
2023-05-02T03:05:57.434Z,21.3
2023-05-02T03:06:59.294Z,21.3
2023-05-02T03:08:00.892Z,21.3
2023-05-02T03:09:02.605Z,21.3
2023-05-02T03:10:04.404Z,21.3
2023-05-02T03:11:06.259Z,21.3
2023-05-02T03:12:08.170Z,21.3
2023-05-02T03:13:09.811Z,21.3
2023-05-02T03:14:11.595Z,21.3
2023-05-02T03:15:13.308Z,21.3
2023-05-02T03:16:15.291Z,21.3
2023-05-02T03:17:17.010Z,21.3
2023-05-02T03:18:18.970Z,21.3
2023-05-02T03:19:20.923Z,21.3
2023-05-02T03:20:22.820Z,21.3
2023-05-02T03:21:24.401Z,21.3
2023-05-02T03:22:25.969Z,21.3
2023-05-02T03:23:27.618Z,21.3
2023-05-02T03:24:29.379Z,21.3
2023-05-02T03:25:31.334Z,21.3
2023-05-02T03:26:33.181Z,21.3
2023-05-02T03:27:35.028Z,21.3
2023-05-02T03:28:36.764Z,21.3
2023-05-02T03:29:38.625Z,21.3
2023-05-02T03:30:40.348Z,21.3
2023-05-02T03:31:42.529Z,21.3
2023-05-02T03:32:44.742Z,21.3
2023-05-02T03:33:46.744Z,21.3
2023-05-02T03:34:48.582Z,21.3
2023-05-02T03:35:50.380Z,21.3
2023-05-02T03:36:52.204Z,21.3
2023-05-02T03:37:54.084Z,21.3
2023-05-02T03:38:55.843Z,21.3
2023-05-02T03:39:57.877Z,21.3
2023-05-02T03:41:00.738Z,21.3
2023-05-02T03:42:02.568Z,21.3
2023-05-02T03:43:04.428Z,21.3
2023-05-02T03:44:06.329Z,21.3
2023-05-02T03:45:08.331Z,21.3
2023-05-02T03:46:10.183Z,21.3
2023-05-02T03:47:12.088Z,21.3
2023-05-02T03:48:14.672Z,21.3
2023-05-02T03:49:16.552Z,21.3
2023-05-02T03:50:18.424Z,21.2
2023-05-02T03:51:20.319Z,21.2
2023-05-02T03:52:22.185Z,21.2
2023-05-02T03:53:24.052Z,21.3
2023-05-02T03:54:25.773Z,21.3
2023-05-02T03:55:27.593Z,21.3
2023-05-02T03:56:32.390Z,21.3
2023-05-02T03:57:34.292Z,21.3
2023-05-02T03:58:36.178Z,21.3
2023-05-02T03:59:37.957Z,21.3
2023-05-02T04:00:39.663Z,21.3
2023-05-02T04:01:41.481Z,21.3
2023-05-02T04:02:43.722Z,21.3
2023-05-02T04:03:46.122Z,21.4
2023-05-02T04:04:48.759Z,21.4
2023-05-02T04:05:50.761Z,21.4
2023-05-02T04:06:52.547Z,21.5
2023-05-02T04:07:54.603Z,21.5
2023-05-02T04:08:56.417Z,21.5
2023-05-02T04:09:58.428Z,21.6
2023-05-02T04:11:01.832Z,21.6
2023-05-02T04:12:03.726Z,21.6
2023-05-02T04:13:05.659Z,21.5
2023-05-02T04:14:07.714Z,21.5
2023-05-02T04:15:09.368Z,21.6
2023-05-02T04:16:11.200Z,21.6
2023-05-02T04:17:13.308Z,21.5
2023-05-02T04:18:15.539Z,21.6
2023-05-02T04:19:17.942Z,21.6
2023-05-02T04:20:19.737Z,21.6
2023-05-02T04:21:21.577Z,21.6
2023-05-02T04:22:23.503Z,21.6
2023-05-02T04:23:25.379Z,21.6
2023-05-02T04:24:27.307Z,21.6
2023-05-02T04:25:29.195Z,21.6
2023-05-02T04:26:31.040Z,21.6
2023-05-02T04:27:32.870Z,21.6
2023-05-02T04:28:34.735Z,21.7
2023-05-02T04:29:36.587Z,21.8
2023-05-02T04:30:38.479Z,21.9
2023-05-02T04:31:40.598Z,21.9
2023-05-02T04:32:42.316Z,22
2023-05-02T04:33:44.307Z,22
2023-05-02T04:34:46.106Z,22.1
2023-05-02T04:35:47.881Z,22.1
2023-05-02T04:36:49.742Z,22.2
2023-05-02T04:37:51.551Z,22.2
2023-05-02T04:38:53.261Z,22.1
2023-05-02T04:39:58.131Z,22.1
2023-05-02T04:41:01.034Z,22.1
2023-05-02T04:42:11.496Z,22.1
2023-05-02T04:43:13.213Z,22.1
2023-05-02T04:44:15.073Z,22.1
2023-05-02T04:45:16.879Z,22.1
2023-05-02T04:46:18.728Z,22.1
2023-05-02T04:47:20.872Z,22.1
2023-05-02T04:48:23.302Z,22.2
2023-05-02T04:49:25.238Z,22.2
2023-05-02T04:50:27.024Z,22.2
2023-05-02T04:51:28.633Z,22.2
2023-05-02T04:52:30.600Z,22.3
2023-05-02T04:53:32.479Z,22.3
2023-05-02T04:54:34.351Z,22.4
2023-05-02T04:55:36.242Z,22.4
2023-05-02T04:56:37.855Z,22.3
2023-05-02T04:57:39.740Z,22.4
2023-05-02T04:58:41.584Z,22.4
2023-05-02T04:59:43.601Z,22.4
2023-05-02T05:00:45.589Z,22.5
2023-05-02T05:01:47.385Z,22.5
2023-05-02T05:02:49.642Z,22.6
2023-05-02T05:03:51.915Z,22.6
2023-05-02T05:04:54.314Z,22.6
2023-05-02T05:05:56.338Z,22.6
2023-05-02T05:06:58.368Z,22.7
2023-05-02T05:08:00.704Z,22.7
2023-05-02T05:09:02.319Z,22.8
2023-05-02T05:10:04.132Z,22.8
2023-05-02T05:11:06.048Z,22.7
2023-05-02T05:12:07.913Z,22.7
2023-05-02T05:13:09.792Z,22.7
2023-05-02T05:14:11.606Z,22.8
2023-05-02T05:15:13.494Z,22.8
2023-05-02T05:16:15.516Z,22.8
2023-05-02T05:17:17.546Z,22.8
2023-05-02T05:18:19.400Z,22.8
2023-05-02T05:19:21.210Z,22.9
2023-05-02T05:20:23.160Z,23
2023-05-02T05:21:24.894Z,23
2023-05-02T05:22:26.792Z,23
2023-05-02T05:23:28.549Z,22.9
2023-05-02T05:24:30.453Z,22.9
2023-05-02T05:25:32.078Z,23
2023-05-02T05:26:33.743Z,23.1
2023-05-02T05:27:35.440Z,23.1
2023-05-02T05:28:37.286Z,23.2
2023-05-02T05:29:39.195Z,23.2
2023-05-02T05:30:40.950Z,23.2
2023-05-02T05:31:42.840Z,23.3
2023-05-02T05:32:44.934Z,23.3
2023-05-02T05:33:47.217Z,23.3
2023-05-02T05:34:49.438Z,23.3
2023-05-02T05:35:51.059Z,23.3
2023-05-02T05:36:52.801Z,23.3
2023-05-02T05:37:54.376Z,23.4
2023-05-02T05:38:56.036Z,23.4
2023-05-02T05:39:58.132Z,23.4
2023-05-02T05:41:01.124Z,23.4
2023-05-02T05:42:02.980Z,23.4
2023-05-02T05:43:04.557Z,23.5
2023-05-02T05:44:06.466Z,23.5
2023-05-02T05:45:08.377Z,23.5
2023-05-02T05:46:10.444Z,23.6
2023-05-02T05:47:12.045Z,23.6
2023-05-02T05:48:14.550Z,23.5
2023-05-02T05:49:16.873Z,23.6
2023-05-02T05:50:18.809Z,23.6
2023-05-02T05:51:20.624Z,23.7
2023-05-02T05:52:22.489Z,23.7
2023-05-02T05:53:24.349Z,23.8
2023-05-02T05:54:25.998Z,23.8
2023-05-02T05:55:27.789Z,23.7
2023-05-02T05:56:29.701Z,23.7
2023-05-02T05:57:31.349Z,23.8
2023-05-02T05:58:33.095Z,23.8
2023-05-02T05:59:34.841Z,23.8
2023-05-02T06:00:36.639Z,23.8
2023-05-02T06:01:38.230Z,23.9
2023-05-02T06:02:40.149Z,23.9
2023-05-02T06:03:42.284Z,23.9
2023-05-02T06:04:44.729Z,23.9
2023-05-02T06:05:46.852Z,23.9
2023-05-02T06:06:48.936Z,23.9
2023-05-02T06:07:51.165Z,23.9
2023-05-02T06:08:53.102Z,23.9
2023-05-02T06:09:54.970Z,23.9
2023-05-02T06:10:56.824Z,24
2023-05-02T06:11:58.669Z,24
2023-05-02T06:13:00.527Z,24
2023-05-02T06:14:02.510Z,24.1
2023-05-02T06:15:04.228Z,24.1
2023-05-02T06:16:05.954Z,24.1
2023-05-02T06:17:08.050Z,24.2
2023-05-02T06:18:09.816Z,24.2
2023-05-02T06:19:11.954Z,24.3
2023-05-02T06:20:13.783Z,24.3
2023-05-02T06:21:19.905Z,24.3
2023-05-02T06:22:21.842Z,24.3
2023-05-02T06:23:23.829Z,24.3
2023-05-02T06:24:25.591Z,24.2
2023-05-02T06:25:27.359Z,24.3
2023-05-02T06:26:29.025Z,24.3
2023-05-02T06:27:32.975Z,24.4
2023-05-02T06:28:35.542Z,24.4
2023-05-02T06:29:37.306Z,24.4
2023-05-02T06:30:39.224Z,24.4
2023-05-02T06:31:41.233Z,24.4
2023-05-02T06:32:43.278Z,24.4
2023-05-02T06:33:45.502Z,24.4
2023-05-02T06:34:47.070Z,24.4
2023-05-02T06:35:48.749Z,24.5
2023-05-02T06:36:50.494Z,24.5
2023-05-02T06:37:52.328Z,24.5
2023-05-02T06:38:54.149Z,24.5
2023-05-02T06:39:55.905Z,24.5
2023-05-02T06:40:57.743Z,24.5
2023-05-02T06:41:59.497Z,24.5
2023-05-02T06:43:01.240Z,24.5
2023-05-02T06:44:03.088Z,24.5
2023-05-02T06:45:04.943Z,24.5
2023-05-02T06:46:09.579Z,24.5
2023-05-02T06:47:11.680Z,24.6
2023-05-02T06:48:13.732Z,24.6
2023-05-02T06:49:15.819Z,24.6
2023-05-02T06:50:17.569Z,24.6
2023-05-02T06:51:19.393Z,24.5
2023-05-02T06:52:21.182Z,24.5
2023-05-02T06:53:22.929Z,24.5
2023-05-02T06:54:24.502Z,24.5
2023-05-02T06:55:26.226Z,24.5
2023-05-02T06:56:27.989Z,24.6
2023-05-02T06:57:29.954Z,24.6
2023-05-02T06:58:31.924Z,24.7
2023-05-02T06:59:33.754Z,24.7
2023-05-02T07:00:35.572Z,24.7
2023-05-02T07:01:37.530Z,24.7
2023-05-02T07:02:40.445Z,24.7
2023-05-02T07:03:42.549Z,24.7
2023-05-02T07:04:44.849Z,24.7
2023-05-02T07:05:46.795Z,24.7
2023-05-02T07:06:48.595Z,24.8
2023-05-02T07:07:50.803Z,24.9
2023-05-02T07:08:52.524Z,24.9
2023-05-02T07:09:54.415Z,24.9
2023-05-02T07:10:56.073Z,24.9
2023-05-02T07:11:57.642Z,24.9
2023-05-02T07:12:59.237Z,24.9
2023-05-02T07:14:00.906Z,24.9
2023-05-02T07:15:02.567Z,24.9
2023-05-02T07:16:04.239Z,24.9
2023-05-02T07:17:06.210Z,24.9
2023-05-02T07:18:08.500Z,24.9
2023-05-02T07:19:10.597Z,24.9
2023-05-02T07:20:12.196Z,24.9
2023-05-02T07:21:14.086Z,24.9
2023-05-02T07:22:15.900Z,24.9
2023-05-02T07:23:17.639Z,24.9
2023-05-02T07:24:19.472Z,24.9
2023-05-02T07:25:21.103Z,24.9
2023-05-02T07:26:22.748Z,24.9
2023-05-02T07:27:24.606Z,24.9
2023-05-02T07:28:26.419Z,24.9
2023-05-02T07:29:28.147Z,24.9
2023-05-02T07:30:30.123Z,24.9
2023-05-02T07:31:31.976Z,24.9
2023-05-02T07:32:33.919Z,24.9
2023-05-02T07:33:36.273Z,24.9
2023-05-02T07:34:37.981Z,24.9
2023-05-02T07:35:39.551Z,24.9
2023-05-02T07:36:41.336Z,24.9
2023-05-02T07:37:43.258Z,24.9
2023-05-02T07:38:44.936Z,24.9
2023-05-02T07:39:46.756Z,25
2023-05-02T07:40:48.386Z,25
2023-05-02T07:41:50.030Z,24.9
2023-05-02T07:42:51.622Z,24.9
2023-05-02T07:43:53.389Z,24.9
2023-05-02T07:44:54.992Z,25
2023-05-02T07:45:56.599Z,25
2023-05-02T07:46:58.608Z,25
2023-05-02T07:48:00.249Z,25
2023-05-02T07:49:02.381Z,25
2023-05-02T07:50:04.132Z,25
2023-05-02T07:51:06.282Z,25.1
2023-05-02T07:52:07.910Z,25.1
2023-05-02T07:53:09.548Z,25.1
2023-05-02T07:54:11.201Z,25.1
2023-05-02T07:55:12.784Z,25
2023-05-02T07:56:14.404Z,25
2023-05-02T07:57:16.201Z,25
2023-05-02T07:58:17.839Z,25
2023-05-02T07:59:19.608Z,25
2023-05-02T08:00:21.500Z,25
2023-05-02T08:01:23.126Z,25
2023-05-02T08:02:24.754Z,25
2023-05-02T08:03:26.956Z,25
2023-05-02T08:04:29.645Z,25.1
2023-05-02T08:05:31.689Z,25.1
2023-05-02T08:06:33.532Z,25.1
2023-05-02T08:07:35.683Z,25.1
2023-05-02T08:08:39.059Z,25.1
2023-05-02T08:09:40.703Z,25.1
2023-05-02T08:10:42.658Z,25.1
2023-05-02T08:11:44.312Z,25.1
2023-05-02T08:12:45.974Z,25.1
2023-05-02T08:13:50.381Z,25.1
2023-05-02T08:14:52.247Z,25
2023-05-02T08:15:53.866Z,25
2023-05-02T08:16:55.860Z,25
2023-05-02T08:17:57.605Z,25
2023-05-02T08:18:59.565Z,25
2023-05-02T08:20:01.656Z,25
2023-05-02T08:21:04.562Z,25
2023-05-02T08:22:06.198Z,25.1
2023-05-02T08:23:08.029Z,25.1
2023-05-02T08:24:09.825Z,25
2023-05-02T08:25:11.583Z,25
2023-05-02T08:26:13.432Z,25
2023-05-02T08:27:15.303Z,24.9
2023-05-02T08:28:17.042Z,24.9
2023-05-02T08:29:18.666Z,24.9
2023-05-02T08:30:20.281Z,24.9
2023-05-02T08:31:21.928Z,24.9
2023-05-02T08:32:24.310Z,24.9
2023-05-02T08:33:26.221Z,24.9
2023-05-02T08:34:27.826Z,24.9
2023-05-02T08:35:29.465Z,24.9
2023-05-02T08:36:31.082Z,24.9
2023-05-02T08:37:32.745Z,24.9
2023-05-02T08:38:34.636Z,24.9
2023-05-02T08:39:36.681Z,24.9
2023-05-02T08:40:41.962Z,24.9
2023-05-02T08:41:45.144Z,24.9
2023-05-02T08:42:46.743Z,24.9
2023-05-02T08:43:48.498Z,24.9
2023-05-02T08:44:50.267Z,24.9
2023-05-02T08:45:51.900Z,24.9
2023-05-02T08:46:53.568Z,24.9
2023-05-02T08:47:55.468Z,24.9
2023-05-02T08:48:57.384Z,24.9
2023-05-02T08:49:59.094Z,24.9
2023-05-02T08:51:02.338Z,24.9
2023-05-02T08:52:03.932Z,25
2023-05-02T08:53:05.559Z,25
2023-05-02T08:54:07.215Z,25
2023-05-02T08:55:09.006Z,25
2023-05-02T08:56:10.694Z,25
2023-05-02T08:57:12.423Z,25
2023-05-02T08:58:16.165Z,25
2023-05-02T08:59:19.548Z,25
2023-05-02T09:00:22.177Z,25
2023-05-02T09:01:24.199Z,25
2023-05-02T09:02:26.291Z,25
2023-05-02T09:03:28.587Z,25
2023-05-02T09:04:30.466Z,25
2023-05-02T09:05:32.617Z,25
2023-05-02T09:06:35.122Z,25
2023-05-02T09:07:37.347Z,25
2023-05-02T09:08:39.274Z,24.9
2023-05-02T09:09:41.134Z,24.9
2023-05-02T09:10:42.925Z,24.9
2023-05-02T09:11:44.751Z,24.9
2023-05-02T09:12:46.622Z,24.9
2023-05-02T09:13:48.528Z,24.9
2023-05-02T09:14:50.297Z,24.8
2023-05-02T09:15:52.286Z,24.9
2023-05-02T09:16:54.318Z,24.9
2023-05-02T09:17:56.432Z,24.9
2023-05-02T09:18:58.275Z,24.9
2023-05-02T09:20:00.279Z,24.9
2023-05-02T09:21:01.976Z,24.8
2023-05-02T09:22:03.648Z,24.9
2023-05-02T09:23:05.318Z,24.9
2023-05-02T09:24:07.005Z,24.9
2023-05-02T09:25:08.857Z,24.9
2023-05-02T09:26:10.689Z,24.9
2023-05-02T09:27:12.280Z,24.9
2023-05-02T09:28:14.012Z,24.8
2023-05-02T09:29:15.643Z,24.8
2023-05-02T09:30:17.385Z,24.9
2023-05-02T09:31:31.848Z,24.9
2023-05-02T09:32:58.327Z,24.9
2023-05-02T09:34:00.360Z,24.9
2023-05-02T09:35:02.198Z,24.9
2023-05-02T09:36:03.919Z,24.9
2023-05-02T09:37:05.596Z,24.9
2023-05-02T09:38:07.395Z,24.9
2023-05-02T09:39:08.978Z,24.9
2023-05-02T09:40:10.565Z,24.9
2023-05-02T09:41:12.239Z,24.9
2023-05-02T09:42:13.954Z,24.9
2023-05-02T09:43:15.708Z,24.9
2023-05-02T09:44:17.325Z,24.9
2023-05-02T09:45:18.950Z,24.9
2023-05-02T09:46:20.612Z,24.9
2023-05-02T09:47:22.525Z,24.9
2023-05-02T09:48:24.189Z,24.9
2023-05-02T09:49:25.834Z,24.9
2023-05-02T09:50:27.442Z,24.8
2023-05-02T09:51:29.056Z,24.8
2023-05-02T09:52:30.676Z,24.8
2023-05-02T09:53:32.379Z,24.8
2023-05-02T09:54:33.940Z,24.8
2023-05-02T09:55:36.080Z,24.8
2023-05-02T09:56:37.648Z,24.8
2023-05-02T09:57:39.287Z,24.8
2023-05-02T09:58:40.944Z,24.9
2023-05-02T09:59:42.603Z,24.9
2023-05-02T10:00:44.231Z,24.9
2023-05-02T10:01:45.855Z,24.9
2023-05-02T10:02:47.685Z,24.9
2023-05-02T10:03:49.514Z,24.9
2023-05-02T10:04:51.491Z,24.9
2023-05-02T10:05:53.135Z,24.9
2023-05-02T10:06:54.726Z,24.9
2023-05-02T10:07:56.318Z,24.9
2023-05-02T10:08:58.178Z,24.9
2023-05-02T10:09:59.773Z,24.9
2023-05-02T10:11:01.591Z,24.9
2023-05-02T10:12:03.206Z,24.9
2023-05-02T10:13:04.973Z,25
2023-05-02T10:14:06.579Z,25
2023-05-02T10:15:08.195Z,24.9
2023-05-02T10:16:09.859Z,24.9
2023-05-02T10:17:11.716Z,24.9
2023-05-02T10:18:13.496Z,24.9
2023-05-02T10:19:15.433Z,24.9
2023-05-02T10:20:17.152Z,25
2023-05-02T10:21:19.209Z,25
2023-05-02T10:22:20.953Z,25
2023-05-02T10:23:22.832Z,25
2023-05-02T10:24:24.776Z,25
2023-05-02T10:25:26.556Z,25
2023-05-02T10:26:28.372Z,25
2023-05-02T10:27:30.394Z,25
2023-05-02T10:28:32.176Z,25
2023-05-02T10:29:33.774Z,25
2023-05-02T10:30:35.437Z,25
2023-05-02T10:31:37.347Z,25
2023-05-02T10:32:39.660Z,25
2023-05-02T10:33:41.635Z,24.9
2023-05-02T10:34:43.493Z,24.9
2023-05-02T10:35:45.174Z,24.9
2023-05-02T10:36:46.897Z,24.9
2023-05-02T10:37:48.778Z,25
2023-05-02T10:38:50.427Z,25
2023-05-02T10:39:52.321Z,24.9
2023-05-02T10:40:55.180Z,24.9
2023-05-02T10:41:56.980Z,24.9
2023-05-02T10:42:58.775Z,24.9
2023-05-02T10:44:00.636Z,24.9
2023-05-02T10:45:02.487Z,24.9
2023-05-02T10:46:05.007Z,25
2023-05-02T10:47:06.858Z,25
2023-05-02T10:48:08.931Z,25
2023-05-02T10:49:10.805Z,25
2023-05-02T10:50:12.518Z,24.9
2023-05-02T10:51:14.375Z,24.9
2023-05-02T10:52:16.014Z,24.9
2023-05-02T10:53:17.897Z,25
2023-05-02T10:54:19.734Z,25
2023-05-02T10:55:21.710Z,25
2023-05-02T10:56:23.549Z,25
2023-05-02T10:57:30.472Z,25
2023-05-02T10:58:32.379Z,25.1
2023-05-02T10:59:34.141Z,25.1
2023-05-02T11:00:36.009Z,25.1
2023-05-02T11:01:38.148Z,25
2023-05-02T11:02:39.993Z,25
2023-05-02T11:03:42.027Z,25
2023-05-02T11:04:43.803Z,25.1
2023-05-02T11:05:45.708Z,25.1
2023-05-02T11:06:47.419Z,25.1
2023-05-02T11:07:49.396Z,25.1
2023-05-02T11:08:51.181Z,25.1
2023-05-02T11:09:52.829Z,25.1
2023-05-02T11:10:54.472Z,25.1
2023-05-02T11:11:56.372Z,25.1
2023-05-02T11:12:58.162Z,25.1
2023-05-02T11:14:00.133Z,25.1
2023-05-02T11:15:02.289Z,25.1
2023-05-02T11:16:05.220Z,25.1
2023-05-02T11:17:07.222Z,25.1
2023-05-02T11:18:09.453Z,25.1
2023-05-02T11:19:11.516Z,25.1
2023-05-02T11:20:13.418Z,25.1
2023-05-02T11:21:15.433Z,25.1
2023-05-02T11:22:17.180Z,25.1
2023-05-02T11:23:19.318Z,25.1
2023-05-02T11:24:21.135Z,25.1
2023-05-02T11:25:23.116Z,25.1
2023-05-02T11:26:25.080Z,25.1
2023-05-02T11:27:26.860Z,25.2
2023-05-02T11:28:28.641Z,25.1
2023-05-02T11:29:30.433Z,25.1
2023-05-02T11:30:32.299Z,25.1
2023-05-02T11:31:34.288Z,25.1
2023-05-02T11:32:36.255Z,25.1
2023-05-02T11:33:38.252Z,25.1
2023-05-02T11:34:39.900Z,25.1
2023-05-02T11:35:41.547Z,25.2
2023-05-02T11:36:43.153Z,25.2
2023-05-02T11:37:44.857Z,25.2
2023-05-02T11:38:46.466Z,25.2
2023-05-02T11:39:48.224Z,25.1
2023-05-02T11:40:50.057Z,25.2
2023-05-02T11:41:51.802Z,25.1
2023-05-02T11:42:53.566Z,25.1
2023-05-02T11:43:55.687Z,25.1
2023-05-02T11:44:57.498Z,25.1
2023-05-02T11:46:00.797Z,25.1
2023-05-02T11:47:03.766Z,25.2
2023-05-02T11:48:05.943Z,25.2
2023-05-02T11:49:09.189Z,25.2
2023-05-02T11:50:16.043Z,25.2
2023-05-02T11:51:17.781Z,25.2
2023-05-02T11:52:19.631Z,25.2
2023-05-02T11:53:21.517Z,25.2
2023-05-02T11:54:23.163Z,25.2
2023-05-02T11:55:24.740Z,25.2
2023-05-02T11:56:26.376Z,25.2
2023-05-02T11:57:28.014Z,25.2
2023-05-02T11:58:29.896Z,25.2
2023-05-02T11:59:31.962Z,25.2
2023-05-02T12:00:33.711Z,25.2
2023-05-02T12:01:35.460Z,25.2
2023-05-02T12:02:37.321Z,25.2
2023-05-02T12:03:40.040Z,25.2
2023-05-02T12:04:42.477Z,25.2
2023-05-02T12:05:44.228Z,25.3
2023-05-02T12:06:46.011Z,25.3
2023-05-02T12:07:47.988Z,25.3
2023-05-02T12:08:49.806Z,25.3
2023-05-02T12:09:51.707Z,25.3
2023-05-02T12:10:53.449Z,25.3
2023-05-02T12:11:55.293Z,25.3
2023-05-02T12:12:57.178Z,25.2
2023-05-02T12:13:58.987Z,25.2
2023-05-02T12:15:01.048Z,25.2
2023-05-02T12:16:04.044Z,25.2
2023-05-02T12:17:06.202Z,25.2
2023-05-02T12:18:07.953Z,25.2
2023-05-02T12:19:10.171Z,25.2
2023-05-02T12:20:11.867Z,25.2
2023-05-02T12:21:13.678Z,25.2
2023-05-02T12:22:15.351Z,25.2
2023-05-02T12:23:17.006Z,25.2
2023-05-02T12:24:18.718Z,25.2
2023-05-02T12:25:20.533Z,25.2
2023-05-02T12:26:22.555Z,25.2
2023-05-02T12:27:24.404Z,25.2
2023-05-02T12:28:26.285Z,25.2
2023-05-02T12:29:28.178Z,25.2
2023-05-02T12:30:30.139Z,25.2
2023-05-02T12:31:32.027Z,25.1
2023-05-02T12:32:34.345Z,25.1
2023-05-02T12:33:36.297Z,25.1
2023-05-02T12:34:38.117Z,25.2
2023-05-02T12:35:39.955Z,25.2
2023-05-02T12:36:41.891Z,25.2
2023-05-02T12:37:43.833Z,25.2
2023-05-02T12:38:48.855Z,25.2
2023-05-02T12:39:50.856Z,25.2
2023-05-02T12:40:52.726Z,25.2
2023-05-02T12:41:54.782Z,25.2
2023-05-02T12:42:56.535Z,25.2
2023-05-02T12:43:58.288Z,25.2
2023-05-02T12:45:00.241Z,25.2
2023-05-02T12:46:02.125Z,25.2
2023-05-02T12:47:04.059Z,25.2
2023-05-02T12:48:06.008Z,25.2
2023-05-02T12:49:07.901Z,25.3
2023-05-02T12:50:09.910Z,25.3
2023-05-02T12:51:11.844Z,25.3
2023-05-02T12:52:13.653Z,25.3
2023-05-02T12:53:15.355Z,25.4
2023-05-02T12:54:17.179Z,25.4
2023-05-02T12:55:19.082Z,25.4
2023-05-02T12:56:20.886Z,25.4
2023-05-02T12:57:22.732Z,25.3
2023-05-02T12:58:24.453Z,25.3
2023-05-02T12:59:26.322Z,25.3
2023-05-02T13:00:28.084Z,25.3
2023-05-02T13:01:29.795Z,25.3
2023-05-02T13:02:31.849Z,25.3
2023-05-02T13:03:34.049Z,25.3
2023-05-02T13:04:36.478Z,25.3
2023-05-02T13:05:38.289Z,25.3
2023-05-02T13:06:40.040Z,25.3
2023-05-02T13:07:42.162Z,25.3
2023-05-02T13:08:44.013Z,25.3
2023-05-02T13:09:45.808Z,25.3
2023-05-02T13:10:47.723Z,25.3
2023-05-02T13:11:49.545Z,25.3
2023-05-02T13:12:51.115Z,25.3
2023-05-02T13:13:52.947Z,25.3
2023-05-02T13:14:54.894Z,25.3
2023-05-02T13:15:56.849Z,25.3
2023-05-02T13:16:58.817Z,25.3
2023-05-02T13:18:01.261Z,25.2
2023-05-02T13:19:04.163Z,25.2
2023-05-02T13:20:06.210Z,25.2
2023-05-02T13:21:09.401Z,25.2
2023-05-02T13:22:11.284Z,25.1
2023-05-02T13:23:13.287Z,25.1
2023-05-02T13:24:15.064Z,25.1
2023-05-02T13:25:16.891Z,25.1
2023-05-02T13:26:18.736Z,25.1
2023-05-02T13:27:20.564Z,25.1
2023-05-02T13:28:22.332Z,25.1
2023-05-02T13:29:24.090Z,25.1
2023-05-02T13:30:25.846Z,25.1
2023-05-02T13:31:27.664Z,25.1
2023-05-02T13:32:29.894Z,25.1
2023-05-02T13:33:31.839Z,25.1
2023-05-02T13:34:33.753Z,25.1
2023-05-02T13:35:35.520Z,25.2
2023-05-02T13:36:37.350Z,25.2
2023-05-02T13:37:39.289Z,25.2
2023-05-02T13:38:41.404Z,25.2
2023-05-02T13:39:43.504Z,25.2
2023-05-02T13:40:45.360Z,25.2
2023-05-02T13:41:47.096Z,25.2
2023-05-02T13:42:49.057Z,25.2
2023-05-02T13:43:50.954Z,25.2
2023-05-02T13:44:52.982Z,25.2
2023-05-02T13:45:54.738Z,25.2
2023-05-02T13:46:56.627Z,25.2
2023-05-02T13:47:58.547Z,25.2
2023-05-02T13:49:00.847Z,25.2
2023-05-02T13:50:03.125Z,25.2